sensor_id;sensor_type;location;lat;lon;timestamp;pressure;altitude;pressure_sealevel;temperature;humidity
10014;BME280;45684;48.358;10.746;2022-10-22T00:01:13;95967.81;;;13.81;100.00
10014;BME280;45684;48.358;10.746;2022-10-22T00:03:41;95970.31;;;13.86;100.00
10014;BME280;45684;48.358;10.746;2022-10-22T00:06:09;95966.09;;;13.88;100.00
10014;BME280;45684;48.358;10.746;2022-10-22T00:08:37;95971.22;;;13.90;100.00
10014;BME280;45684;48.358;10.746;2022-10-22T00:11:13;95968.50;;;13.90;100.00
10014;BME280;45684;48.358;10.746;2022-10-22T00:13:41;95980.47;;;13.89;100.00
10014;BME280;45684;48.358;10.746;2022-10-22T00:16:09;95979.56;;;13.85;100.00
10014;BME280;45684;48.358;10.746;2022-10-22T00:18:39;95985.72;;;13.82;100.00
10014;BME280;45684;48.358;10.746;2022-10-22T00:21:07;95980.72;;;13.84;100.00
10014;BME280;45684;48.358;10.746;2022-10-22T00:23:35;95976.41;;;13.83;100.00
10014;BME280;45684;48.358;10.746;2022-10-22T00:26:03;95993.41;;;13.79;100.00
10014;BME280;45684;48.358;10.746;2022-10-22T00:28:31;95988.88;;;13.84;100.00
10014;BME280;45684;48.358;10.746;2022-10-22T00:30:59;95995.22;;;13.88;100.00
10014;BME280;45684;48.358;10.746;2022-10-22T00:33:28;95999.97;;;13.91;100.00
10014;BME280;45684;48.358;10.746;2022-10-22T00:35:58;95996.91;;;13.92;100.00
10014;BME280;45684;48.358;10.746;2022-10-22T00:38:25;96006.88;;;13.88;100.00
10014;BME280;45684;48.358;10.746;2022-10-22T00:40:53;95994.31;;;13.84;100.00
10014;BME280;45684;48.358;10.746;2022-10-22T00:43:21;95989.56;;;13.81;100.00
10014;BME280;45684;48.358;10.746;2022-10-22T00:45:49;95980.59;;;13.80;100.00
10014;BME280;45684;48.358;10.746;2022-10-22T00:48:20;95979.38;;;13.77;100.00
10014;BME280;45684;48.358;10.746;2022-10-22T00:50:51;95977.66;;;13.73;100.00
10014;BME280;45684;48.358;10.746;2022-10-22T00:53:25;95987.06;;;13.75;100.00
10014;BME280;45684;48.358;10.746;2022-10-22T00:55:55;95990.47;;;13.72;100.00
10014;BME280;45684;48.358;10.746;2022-10-22T00:58:25;96001.47;;;13.76;100.00
10014;BME280;45684;48.358;10.746;2022-10-22T01:00:54;96013.91;;;13.77;100.00
10014;BME280;45684;48.358;10.746;2022-10-22T01:03:23;96016.75;;;13.81;100.00
10014;BME280;45684;48.358;10.746;2022-10-22T01:05:54;96025.09;;;13.75;100.00
10014;BME280;45684;48.358;10.746;2022-10-22T01:08:27;96013.34;;;13.71;100.00
10014;BME280;45684;48.358;10.746;2022-10-22T01:11:07;96006.31;;;13.70;100.00
10014;BME280;45684;48.358;10.746;2022-10-22T01:13:48;96005.19;;;13.71;100.00
10014;BME280;45684;48.358;10.746;2022-10-22T01:16:24;96006.00;;;13.72;100.00
10014;BME280;45684;48.358;10.746;2022-10-22T01:19:02;95994.31;;;13.71;100.00
10014;BME280;45684;48.358;10.746;2022-10-22T01:21:41;95997.47;;;13.73;100.00
10014;BME280;45684;48.358;10.746;2022-10-22T01:24:33;96000.19;;;13.73;100.00
10014;BME280;45684;48.358;10.746;2022-10-22T01:27:10;95995.69;;;13.77;100.00
10014;BME280;45684;48.358;10.746;2022-10-22T01:29:45;95994.53;;;13.78;100.00
10014;BME280;45684;48.358;10.746;2022-10-22T01:32:16;95997.25;;;13.78;100.00
10014;BME280;45684;48.358;10.746;2022-10-22T01:34:48;96006.44;;;13.74;100.00
10014;BME280;45684;48.358;10.746;2022-10-22T01:37:19;96019.91;;;13.70;100.00
10014;BME280;45684;48.358;10.746;2022-10-22T01:39:48;96024.22;;;13.71;100.00
10014;BME280;45684;48.358;10.746;2022-10-22T01:42:17;96030.91;;;13.62;100.00
10014;BME280;45684;48.358;10.746;2022-10-22T01:44:46;96031.78;;;13.53;100.00
10014;BME280;45684;48.358;10.746;2022-10-22T01:47:17;96030.88;;;13.49;100.00
10014;BME280;45684;48.358;10.746;2022-10-22T01:50:19;96038.47;;;13.44;100.00
10014;BME280;45684;48.358;10.746;2022-10-22T01:53:04;96027.91;;;13.42;100.00
10014;BME280;45684;48.358;10.746;2022-10-22T01:55:39;96032.56;;;13.42;100.00
10014;BME280;45684;48.358;10.746;2022-10-22T01:58:18;96030.53;;;13.39;100.00
10014;BME280;45684;48.358;10.746;2022-10-22T02:00:55;96040.25;;;13.40;100.00
10014;BME280;45684;48.358;10.746;2022-10-22T02:03:28;96045.34;;;13.41;100.00
10014;BME280;45684;48.358;10.746;2022-10-22T02:06:02;96061.28;;;13.43;100.00
10014;BME280;45684;48.358;10.746;2022-10-22T02:08:34;96061.19;;;13.39;100.00
10014;BME280;45684;48.358;10.746;2022-10-22T02:11:03;96066.50;;;13.36;100.00
10014;BME280;45684;48.358;10.746;2022-10-22T02:13:35;96057.44;;;13.32;100.00
10014;BME280;45684;48.358;10.746;2022-10-22T02:16:09;96056.66;;;13.31;100.00
10014;BME280;45684;48.358;10.746;2022-10-22T02:18:44;96055.38;;;13.28;100.00
10014;BME280;45684;48.358;10.746;2022-10-22T02:21:13;96054.94;;;13.26;100.00
10014;BME280;45684;48.358;10.746;2022-10-22T02:23:42;96051.44;;;13.26;100.00
10014;BME280;45684;48.358;10.746;2022-10-22T02:26:15;96051.78;;;13.24;100.00
10014;BME280;45684;48.358;10.746;2022-10-22T02:28:51;96046.97;;;13.21;100.00
10014;BME280;45684;48.358;10.746;2022-10-22T02:31:24;96051.78;;;13.24;100.00
10014;BME280;45684;48.358;10.746;2022-10-22T02:33:56;96039.97;;;13.20;100.00
10014;BME280;45684;48.358;10.746;2022-10-22T02:36:25;96031.16;;;13.23;100.00
10014;BME280;45684;48.358;10.746;2022-10-22T02:38:54;96023.81;;;13.24;100.00
10014;BME280;45684;48.358;10.746;2022-10-22T02:41:22;96022.53;;;13.21;100.00
10014;BME280;45684;48.358;10.746;2022-10-22T02:43:53;96029.84;;;13.30;100.00
10014;BME280;45684;48.358;10.746;2022-10-22T02:46:23;96038.66;;;13.26;100.00
10014;BME280;45684;48.358;10.746;2022-10-22T02:48:52;96030.06;;;13.24;100.00
10014;BME280;45684;48.358;10.746;2022-10-22T02:51:19;96028.91;;;13.25;100.00
10014;BME280;45684;48.358;10.746;2022-10-22T02:53:47;96035.50;;;13.24;100.00
10014;BME280;45684;48.358;10.746;2022-10-22T02:56:16;96032.63;;;13.21;100.00
10014;BME280;45684;48.358;10.746;2022-10-22T02:58:43;96035.81;;;13.23;100.00
10014;BME280;45684;48.358;10.746;2022-10-22T03:01:12;96042.03;;;13.23;100.00
10014;BME280;45684;48.358;10.746;2022-10-22T03:03:43;96050.50;;;13.22;100.00
10014;BME280;45684;48.358;10.746;2022-10-22T03:06:11;96052.75;;;13.20;100.00
10014;BME280;45684;48.358;10.746;2022-10-22T03:08:39;96052.50;;;13.13;100.00
10014;BME280;45684;48.358;10.746;2022-10-22T03:11:07;96059.19;;;13.15;100.00
10014;BME280;45684;48.358;10.746;2022-10-22T03:13:34;96059.84;;;13.12;100.00
10014;BME280;45684;48.358;10.746;2022-10-22T03:16:02;96065.84;;;13.06;100.00
10014;BME280;45684;48.358;10.746;2022-10-22T03:18:30;96066.16;;;13.04;100.00
10014;BME280;45684;48.358;10.746;2022-10-22T03:21:08;96079.50;;;13.09;100.00
10014;BME280;45684;48.358;10.746;2022-10-22T03:23:38;96071.06;;;13.11;100.00
10014;BME280;45684;48.358;10.746;2022-10-22T03:26:07;96083.50;;;13.12;100.00
10014;BME280;45684;48.358;10.746;2022-10-22T03:28:36;96077.50;;;13.06;100.00
10014;BME280;45684;48.358;10.746;2022-10-22T03:31:05;96071.28;;;13.06;100.00
10014;BME280;45684;48.358;10.746;2022-10-22T03:33:33;96067.50;;;12.98;100.00
10014;BME280;45684;48.358;10.746;2022-10-22T03:36:01;96069.06;;;12.99;100.00
10014;BME280;45684;48.358;10.746;2022-10-22T03:38:30;96073.59;;;12.95;100.00
10014;BME280;45684;48.358;10.746;2022-10-22T03:40:58;96072.00;;;12.94;100.00
10014;BME280;45684;48.358;10.746;2022-10-22T03:43:26;96063.59;;;12.87;100.00
10014;BME280;45684;48.358;10.746;2022-10-22T03:45:54;96063.28;;;12.88;100.00
10014;BME280;45684;48.358;10.746;2022-10-22T03:48:22;96071.72;;;12.87;100.00
10014;BME280;45684;48.358;10.746;2022-10-22T03:50:49;96075.13;;;12.84;100.00
10014;BME280;45684;48.358;10.746;2022-10-22T03:53:17;96067.91;;;12.88;100.00
10014;BME280;45684;48.358;10.746;2022-10-22T03:55:46;96061.69;;;12.87;100.00
10014;BME280;45684;48.358;10.746;2022-10-22T03:58:14;96070.16;;;12.86;100.00
10014;BME280;45684;48.358;10.746;2022-10-22T04:00:42;96078.63;;;12.84;100.00
10014;BME280;45684;48.358;10.746;2022-10-22T04:03:09;96084.72;;;12.81;100.00
10014;BME280;45684;48.358;10.746;2022-10-22T04:05:37;96086.44;;;12.86;100.00
10014;BME280;45684;48.358;10.746;2022-10-22T04:08:05;96082.13;;;12.85;100.00
10014;BME280;45684;48.358;10.746;2022-10-22T04:10:33;96094.00;;;12.80;100.00
10014;BME280;45684;48.358;10.746;2022-10-22T04:13:02;96098.28;;;12.81;100.00
10014;BME280;45684;48.358;10.746;2022-10-22T04:15:30;96116.50;;;12.81;100.00
10014;BME280;45684;48.358;10.746;2022-10-22T04:17:58;96119.22;;;12.81;100.00
10014;BME280;45684;48.358;10.746;2022-10-22T04:20:26;96117.63;;;12.80;100.00
10014;BME280;45684;48.358;10.746;2022-10-22T04:22:54;96119.41;;;12.75;100.00
10014;BME280;45684;48.358;10.746;2022-10-22T04:25:21;96123.25;;;12.74;100.00
10014;BME280;45684;48.358;10.746;2022-10-22T04:27:49;96128.69;;;12.74;100.00
10014;BME280;45684;48.358;10.746;2022-10-22T04:30:18;96120.19;;;12.76;100.00
10014;BME280;45684;48.358;10.746;2022-10-22T04:32:46;96140.00;;;12.76;100.00
10014;BME280;45684;48.358;10.746;2022-10-22T04:35:14;96138.59;;;12.70;100.00
10014;BME280;45684;48.358;10.746;2022-10-22T04:37:42;96128.34;;;12.76;100.00
10014;BME280;45684;48.358;10.746;2022-10-22T04:40:11;96123.25;;;12.74;100.00
10014;BME280;45684;48.358;10.746;2022-10-22T04:42:39;96131.84;;;12.76;100.00
10014;BME280;45684;48.358;10.746;2022-10-22T04:45:07;96132.53;;;12.73;100.00
10014;BME280;45684;48.358;10.746;2022-10-22T04:47:37;96134.75;;;12.71;100.00
10014;BME280;45684;48.358;10.746;2022-10-22T04:50:06;96133.97;;;12.71;100.00
10014;BME280;45684;48.358;10.746;2022-10-22T04:52:34;96133.81;;;12.67;100.00
10014;BME280;45684;48.358;10.746;2022-10-22T04:55:02;96122.97;;;12.67;100.00
10014;BME280;45684;48.358;10.746;2022-10-22T04:57:30;96114.53;;;12.69;100.00
10014;BME280;45684;48.358;10.746;2022-10-22T04:59:58;96112.91;;;12.68;100.00
10014;BME280;45684;48.358;10.746;2022-10-22T05:02:26;96109.53;;;12.71;100.00
10014;BME280;45684;48.358;10.746;2022-10-22T05:04:55;96105.69;;;12.72;100.00
10014;BME280;45684;48.358;10.746;2022-10-22T05:07:23;96116.91;;;12.70;100.00
10014;BME280;45684;48.358;10.746;2022-10-22T05:09:52;96103.38;;;12.62;100.00
10014;BME280;45684;48.358;10.746;2022-10-22T05:12:20;96101.00;;;12.60;100.00
10014;BME280;45684;48.358;10.746;2022-10-22T05:14:47;96091.28;;;12.59;100.00
10014;BME280;45684;48.358;10.746;2022-10-22T05:17:15;96090.03;;;12.57;100.00
10014;BME280;45684;48.358;10.746;2022-10-22T05:19:43;96090.56;;;12.50;100.00
10014;BME280;45684;48.358;10.746;2022-10-22T05:22:12;96088.75;;;12.54;100.00
10014;BME280;45684;48.358;10.746;2022-10-22T05:24:40;96075.88;;;12.51;100.00
10014;BME280;45684;48.358;10.746;2022-10-22T05:27:08;96062.50;;;12.46;100.00
10014;BME280;45684;48.358;10.746;2022-10-22T05:29:36;96059.31;;;12.44;100.00
10014;BME280;45684;48.358;10.746;2022-10-22T05:32:04;96067.00;;;12.42;100.00
10014;BME280;45684;48.358;10.746;2022-10-22T05:34:31;96068.13;;;12.41;100.00
10014;BME280;45684;48.358;10.746;2022-10-22T05:37:02;96075.00;;;12.38;100.00
10014;BME280;45684;48.358;10.746;2022-10-22T05:39:31;96064.94;;;12.39;100.00
10014;BME280;45684;48.358;10.746;2022-10-22T05:42:02;96052.84;;;12.36;100.00
10014;BME280;45684;48.358;10.746;2022-10-22T05:44:30;96065.63;;;12.36;100.00
10014;BME280;45684;48.358;10.746;2022-10-22T05:46:57;96077.72;;;12.38;100.00
10014;BME280;45684;48.358;10.746;2022-10-22T05:49:25;96080.56;;;12.42;100.00
10014;BME280;45684;48.358;10.746;2022-10-22T05:51:53;96090.72;;;12.45;100.00
10014;BME280;45684;48.358;10.746;2022-10-22T05:54:21;96097.28;;;12.44;100.00
10014;BME280;45684;48.358;10.746;2022-10-22T05:56:50;96099.34;;;12.47;100.00
10014;BME280;45684;48.358;10.746;2022-10-22T05:59:17;96088.50;;;12.47;100.00
10014;BME280;45684;48.358;10.746;2022-10-22T06:01:45;96102.84;;;12.47;100.00
10014;BME280;45684;48.358;10.746;2022-10-22T06:04:13;96107.94;;;12.49;100.00
10014;BME280;45684;48.358;10.746;2022-10-22T06:06:44;96118.00;;;12.48;100.00
10014;BME280;45684;48.358;10.746;2022-10-22T06:09:16;96126.00;;;12.45;100.00
10014;BME280;45684;48.358;10.746;2022-10-22T06:11:45;96146.44;;;12.42;100.00
10014;BME280;45684;48.358;10.746;2022-10-22T06:14:15;96154.91;;;12.41;100.00
10014;BME280;45684;48.358;10.746;2022-10-22T06:16:42;96153.66;;;12.38;100.00
10014;BME280;45684;48.358;10.746;2022-10-22T06:19:13;96166.56;;;12.41;100.00
10014;BME280;45684;48.358;10.746;2022-10-22T06:21:42;96161.25;;;12.45;100.00
10014;BME280;45684;48.358;10.746;2022-10-22T06:24:10;96168.59;;;12.44;100.00
10014;BME280;45684;48.358;10.746;2022-10-22T06:26:38;96171.13;;;12.49;100.00
10014;BME280;45684;48.358;10.746;2022-10-22T06:29:07;96172.25;;;12.48;100.00
10014;BME280;45684;48.358;10.746;2022-10-22T06:31:36;96175.25;;;12.56;100.00
10014;BME280;45684;48.358;10.746;2022-10-22T06:34:09;96182.13;;;12.53;100.00
10014;BME280;45684;48.358;10.746;2022-10-22T06:36:38;96188.13;;;12.59;100.00
10014;BME280;45684;48.358;10.746;2022-10-22T06:39:08;96188.03;;;12.55;100.00
10014;BME280;45684;48.358;10.746;2022-10-22T06:41:37;96191.97;;;12.58;100.00
10014;BME280;45684;48.358;10.746;2022-10-22T06:44:05;96202.03;;;12.57;100.00
10014;BME280;45684;48.358;10.746;2022-10-22T06:46:33;96213.38;;;12.59;100.00
10014;BME280;45684;48.358;10.746;2022-10-22T06:49:03;96211.91;;;12.62;100.00
10014;BME280;45684;48.358;10.746;2022-10-22T06:51:31;96216.88;;;12.60;100.00
10014;BME280;45684;48.358;10.746;2022-10-22T06:53:59;96215.25;;;12.59;100.00
10014;BME280;45684;48.358;10.746;2022-10-22T06:56:27;96212.25;;;12.60;100.00
10014;BME280;45684;48.358;10.746;2022-10-22T06:58:56;96223.50;;;12.71;100.00
10014;BME280;45684;48.358;10.746;2022-10-22T07:01:26;96237.06;;;12.71;100.00
10014;BME280;45684;48.358;10.746;2022-10-22T07:03:54;96235.63;;;12.73;100.00
10014;BME280;45684;48.358;10.746;2022-10-22T07:06:24;96245.16;;;12.80;100.00
10014;BME280;45684;48.358;10.746;2022-10-22T07:08:52;96252.00;;;12.86;100.00
10014;BME280;45684;48.358;10.746;2022-10-22T07:11:22;96248.63;;;12.89;100.00
10014;BME280;45684;48.358;10.746;2022-10-22T07:13:50;96249.38;;;12.98;100.00
10014;BME280;45684;48.358;10.746;2022-10-22T07:16:20;96257.78;;;13.05;100.00
10014;BME280;45684;48.358;10.746;2022-10-22T07:18:48;96252.53;;;13.00;100.00
10014;BME280;45684;48.358;10.746;2022-10-22T07:21:18;96252.03;;;13.07;100.00
10014;BME280;45684;48.358;10.746;2022-10-22T07:23:48;96253.28;;;13.09;100.00
10014;BME280;45684;48.358;10.746;2022-10-22T07:26:16;96256.34;;;13.08;100.00
10014;BME280;45684;48.358;10.746;2022-10-22T07:28:46;96254.84;;;13.10;100.00
10014;BME280;45684;48.358;10.746;2022-10-22T07:31:14;96257.25;;;13.12;100.00
10014;BME280;45684;48.358;10.746;2022-10-22T07:33:42;96265.34;;;13.20;100.00
10014;BME280;45684;48.358;10.746;2022-10-22T07:36:12;96279.91;;;13.24;100.00
10014;BME280;45684;48.358;10.746;2022-10-22T07:38:43;96273.97;;;13.22;100.00
10014;BME280;45684;48.358;10.746;2022-10-22T07:41:12;96284.06;;;13.13;100.00
10014;BME280;45684;48.358;10.746;2022-10-22T07:43:40;96296.22;;;13.16;100.00
10014;BME280;45684;48.358;10.746;2022-10-22T07:46:09;96301.31;;;13.17;100.00
10014;BME280;45684;48.358;10.746;2022-10-22T07:48:37;96290.28;;;13.22;100.00
10014;BME280;45684;48.358;10.746;2022-10-22T07:51:06;96296.31;;;13.28;100.00
10014;BME280;45684;48.358;10.746;2022-10-22T07:53:34;96295.50;;;13.27;100.00
10014;BME280;45684;48.358;10.746;2022-10-22T07:56:03;96294.38;;;13.28;100.00
10014;BME280;45684;48.358;10.746;2022-10-22T07:58:32;96296.94;;;13.34;100.00
10014;BME280;45684;48.358;10.746;2022-10-22T08:01:01;96298.66;;;13.38;100.00
10014;BME280;45684;48.358;10.746;2022-10-22T08:03:31;96303.41;;;13.41;100.00
10014;BME280;45684;48.358;10.746;2022-10-22T08:06:00;96306.91;;;13.42;100.00
10014;BME280;45684;48.358;10.746;2022-10-22T08:08:28;96306.59;;;13.43;100.00
10014;BME280;45684;48.358;10.746;2022-10-22T08:10:59;96314.56;;;13.48;100.00
10014;BME280;45684;48.358;10.746;2022-10-22T08:13:28;96326.00;;;13.54;100.00
10014;BME280;45684;48.358;10.746;2022-10-22T08:15:59;96323.44;;;13.58;100.00
10014;BME280;45684;48.358;10.746;2022-10-22T08:18:28;96324.03;;;13.63;100.00
10014;BME280;45684;48.358;10.746;2022-10-22T08:20:56;96325.28;;;13.66;100.00
10014;BME280;45684;48.358;10.746;2022-10-22T08:23:26;96325.41;;;13.69;100.00
10014;BME280;45684;48.358;10.746;2022-10-22T08:26:27;96314.53;;;13.69;100.00
10014;BME280;45684;48.358;10.746;2022-10-22T08:28:55;96310.56;;;13.67;100.00
10014;BME280;45684;48.358;10.746;2022-10-22T08:31:24;96315.22;;;13.66;100.00
10014;BME280;45684;48.358;10.746;2022-10-22T08:33:52;96329.25;;;13.68;100.00
10014;BME280;45684;48.358;10.746;2022-10-22T08:36:21;96326.88;;;13.67;100.00
10014;BME280;45684;48.358;10.746;2022-10-22T08:38:49;96332.19;;;13.63;100.00
10014;BME280;45684;48.358;10.746;2022-10-22T08:41:19;96340.47;;;13.67;100.00
10014;BME280;45684;48.358;10.746;2022-10-22T08:44:01;96333.91;;;13.68;100.00
10014;BME280;45684;48.358;10.746;2022-10-22T08:46:45;96339.59;;;13.75;100.00
10014;BME280;45684;48.358;10.746;2022-10-22T08:49:20;96336.81;;;13.84;100.00
10014;BME280;45684;48.358;10.746;2022-10-22T08:51:49;96332.44;;;13.91;100.00
10014;BME280;45684;48.358;10.746;2022-10-22T08:54:30;96344.25;;;14.08;100.00
10014;BME280;45684;48.358;10.746;2022-10-22T08:57:11;96340.53;;;14.12;100.00
10014;BME280;45684;48.358;10.746;2022-10-22T08:59:48;96341.94;;;14.18;100.00
10014;BME280;45684;48.358;10.746;2022-10-22T09:02:29;96352.63;;;14.23;100.00
10014;BME280;45684;48.358;10.746;2022-10-22T09:05:05;96350.81;;;14.27;100.00
10014;BME280;45684;48.358;10.746;2022-10-22T09:07:40;96353.97;;;14.29;100.00
10014;BME280;45684;48.358;10.746;2022-10-22T09:10:11;96361.50;;;14.33;100.00
10014;BME280;45684;48.358;10.746;2022-10-22T09:12:39;96369.16;;;14.30;100.00
10014;BME280;45684;48.358;10.746;2022-10-22T09:15:12;96365.13;;;14.37;100.00
10014;BME280;45684;48.358;10.746;2022-10-22T09:17:50;96375.09;;;14.33;100.00
10014;BME280;45684;48.358;10.746;2022-10-22T09:20:24;96368.38;;;14.30;100.00
10014;BME280;45684;48.358;10.746;2022-10-22T09:23:00;96363.06;;;14.34;100.00
10014;BME280;45684;48.358;10.746;2022-10-22T09:25:35;96364.91;;;14.42;100.00
10014;BME280;45684;48.358;10.746;2022-10-22T09:28:03;96362.59;;;14.52;100.00
10014;BME280;45684;48.358;10.746;2022-10-22T09:30:34;96363.50;;;14.57;100.00
10014;BME280;45684;48.358;10.746;2022-10-22T09:33:10;96365.22;;;14.61;100.00
10014;BME280;45684;48.358;10.746;2022-10-22T09:35:45;96361.84;;;14.64;100.00
10014;BME280;45684;48.358;10.746;2022-10-22T09:38:16;96375.31;;;14.73;100.00
10014;BME280;45684;48.358;10.746;2022-10-22T09:40:47;96373.88;;;14.88;100.00
10014;BME280;45684;48.358;10.746;2022-10-22T09:43:16;96374.81;;;15.04;100.00
10014;BME280;45684;48.358;10.746;2022-10-22T09:45:45;96385.94;;;15.23;100.00
10014;BME280;45684;48.358;10.746;2022-10-22T09:48:20;96387.53;;;15.37;100.00
10014;BME280;45684;48.358;10.746;2022-10-22T09:50:56;96388.63;;;15.48;100.00
10014;BME280;45684;48.358;10.746;2022-10-22T09:53:28;96403.16;;;15.52;100.00
10014;BME280;45684;48.358;10.746;2022-10-22T09:55:58;96398.19;;;15.54;100.00
10014;BME280;45684;48.358;10.746;2022-10-22T09:58:26;96402.16;;;15.56;100.00
10014;BME280;45684;48.358;10.746;2022-10-22T10:00:56;96399.09;;;15.58;100.00
10014;BME280;45684;48.358;10.746;2022-10-22T10:03:27;96400.25;;;15.69;100.00
10014;BME280;45684;48.358;10.746;2022-10-22T10:05:59;96408.59;;;15.89;100.00
10014;BME280;45684;48.358;10.746;2022-10-22T10:08:32;96413.56;;;16.11;100.00
10014;BME280;45684;48.358;10.746;2022-10-22T10:11:02;96409.44;;;16.17;100.00
10014;BME280;45684;48.358;10.746;2022-10-22T10:13:40;96422.50;;;16.24;100.00
10014;BME280;45684;48.358;10.746;2022-10-22T10:16:34;96417.06;;;16.24;100.00
10014;BME280;45684;48.358;10.746;2022-10-22T10:19:34;96415.47;;;16.23;100.00
10014;BME280;45684;48.358;10.746;2022-10-22T10:22:12;96411.59;;;16.24;100.00
10014;BME280;45684;48.358;10.746;2022-10-22T10:24:53;96408.50;;;16.25;100.00
10014;BME280;45684;48.358;10.746;2022-10-22T10:27:37;96412.81;;;16.26;100.00
10014;BME280;45684;48.358;10.746;2022-10-22T10:30:12;96404.78;;;16.18;100.00
10014;BME280;45684;48.358;10.746;2022-10-22T10:32:56;96410.72;;;16.07;100.00
10014;BME280;45684;48.358;10.746;2022-10-22T10:35:35;96409.25;;;16.10;100.00
10014;BME280;45684;48.358;10.746;2022-10-22T10:38:23;96408.78;;;16.08;100.00
10014;BME280;45684;48.358;10.746;2022-10-22T10:41:01;96406.81;;;16.21;100.00
10014;BME280;45684;48.358;10.746;2022-10-22T10:43:38;96409.66;;;16.24;100.00
10014;BME280;45684;48.358;10.746;2022-10-22T10:46:13;96410.88;;;16.27;100.00
10014;BME280;45684;48.358;10.746;2022-10-22T10:48:48;96408.41;;;16.22;100.00
10014;BME280;45684;48.358;10.746;2022-10-22T10:51:35;96419.78;;;16.24;100.00
10014;BME280;45684;48.358;10.746;2022-10-22T10:56:57;96411.34;;;16.57;100.00
10014;BME280;45684;48.358;10.746;2022-10-22T10:59:44;96420.59;;;16.68;100.00
10014;BME280;45684;48.358;10.746;2022-10-22T11:05:35;96418.31;;;17.46;100.00
10014;BME280;45684;48.358;10.746;2022-10-22T11:08:10;96422.41;;;17.71;100.00
10014;BME280;45684;48.358;10.746;2022-10-22T11:10:43;96421.03;;;17.77;100.00
10014;BME280;45684;48.358;10.746;2022-10-22T11:13:17;96427.84;;;18.42;100.00
10014;BME280;45684;48.358;10.746;2022-10-22T11:15:51;96423.56;;;19.02;100.00
10014;BME280;45684;48.358;10.746;2022-10-22T11:18:27;96425.28;;;19.33;100.00
10014;BME280;45684;48.358;10.746;2022-10-22T11:21:07;96424.47;;;19.10;100.00
10014;BME280;45684;48.358;10.746;2022-10-22T11:23:41;96424.66;;;18.75;100.00
10014;BME280;45684;48.358;10.746;2022-10-22T11:26:16;96425.44;;;18.75;100.00
10014;BME280;45684;48.358;10.746;2022-10-22T11:28:49;96422.31;;;18.77;100.00
10014;BME280;45684;48.358;10.746;2022-10-22T11:31:22;96421.88;;;18.55;100.00
10014;BME280;45684;48.358;10.746;2022-10-22T11:33:54;96422.38;;;18.42;100.00
10014;BME280;45684;48.358;10.746;2022-10-22T11:36:36;96421.78;;;18.13;100.00
10014;BME280;45684;48.358;10.746;2022-10-22T11:39:06;96419.59;;;17.83;100.00
10014;BME280;45684;48.358;10.746;2022-10-22T11:41:35;96412.41;;;17.95;100.00
10014;BME280;45684;48.358;10.746;2022-10-22T11:44:10;96408.56;;;18.34;100.00
10014;BME280;45684;48.358;10.746;2022-10-22T11:46:54;96415.00;;;18.65;100.00
10014;BME280;45684;48.358;10.746;2022-10-22T11:49:25;96419.59;;;19.00;100.00
10014;BME280;45684;48.358;10.746;2022-10-22T11:52:24;96412.56;;;19.22;100.00
10014;BME280;45684;48.358;10.746;2022-10-22T11:54:56;96416.97;;;19.53;100.00
10014;BME280;45684;48.358;10.746;2022-10-22T11:57:26;96416.47;;;19.47;100.00
10014;BME280;45684;48.358;10.746;2022-10-22T11:59:58;96406.44;;;19.81;100.00
10014;BME280;45684;48.358;10.746;2022-10-22T12:02:44;96399.31;;;20.03;100.00
10014;BME280;45684;48.358;10.746;2022-10-22T12:05:18;96402.75;;;19.70;100.00
10014;BME280;45684;48.358;10.746;2022-10-22T12:07:52;96398.22;;;19.81;100.00
10014;BME280;45684;48.358;10.746;2022-10-22T12:10:25;96399.31;;;20.03;100.00
10014;BME280;45684;48.358;10.746;2022-10-22T12:12:55;96395.81;;;20.06;100.00
10014;BME280;45684;48.358;10.746;2022-10-22T12:15:26;96402.22;;;20.18;100.00
10014;BME280;45684;48.358;10.746;2022-10-22T12:17:59;96397.97;;;20.20;99.12
10014;BME280;45684;48.358;10.746;2022-10-22T12:20:28;96387.13;;;20.01;98.87
10014;BME280;45684;48.358;10.746;2022-10-22T12:22:57;96383.91;;;20.25;99.08
10014;BME280;45684;48.358;10.746;2022-10-22T12:25:30;96385.66;;;20.41;98.06
10014;BME280;45684;48.358;10.746;2022-10-22T12:28:01;96388.84;;;20.46;98.42
10014;BME280;45684;48.358;10.746;2022-10-22T12:30:31;96383.34;;;20.46;99.02
10014;BME280;45684;48.358;10.746;2022-10-22T12:33:01;96378.47;;;20.32;97.14
10014;BME280;45684;48.358;10.746;2022-10-22T12:35:31;96376.16;;;20.04;96.50
10014;BME280;45684;48.358;10.746;2022-10-22T12:38:14;96380.66;;;20.16;96.10
10014;BME280;45684;48.358;10.746;2022-10-22T12:40:59;96377.00;;;20.08;96.61
10014;BME280;45684;48.358;10.746;2022-10-22T12:43:28;96385.41;;;20.19;92.68
10014;BME280;45684;48.358;10.746;2022-10-22T12:45:58;96373.94;;;20.13;94.25
10014;BME280;45684;48.358;10.746;2022-10-22T12:48:29;96376.91;;;20.31;94.03
10014;BME280;45684;48.358;10.746;2022-10-22T12:51:01;96381.88;;;20.22;93.23
10014;BME280;45684;48.358;10.746;2022-10-22T12:53:32;96380.16;;;20.41;93.25
10014;BME280;45684;48.358;10.746;2022-10-22T12:56:06;96374.16;;;20.61;93.66
10014;BME280;45684;48.358;10.746;2022-10-22T12:58:38;96384.00;;;20.66;90.72
10014;BME280;45684;48.358;10.746;2022-10-22T13:01:10;96375.69;;;20.59;91.69
10014;BME280;45684;48.358;10.746;2022-10-22T13:03:44;96379.22;;;20.59;88.43
10014;BME280;45684;48.358;10.746;2022-10-22T13:06:23;96382.06;;;20.70;89.02
10014;BME280;45684;48.358;10.746;2022-10-22T13:08:57;96369.69;;;20.50;89.66